DLH453 KLAX-EDDM
Flight info
| Callsign | DLH453 |
|---|---|
| Flight time | N/A |
| Altitude | 35000 |
| Route | OSHNN1 BEALE DCT BAWER DCT KU54Q DCT KD60S DCT KD66U DCT KD72W DCT KD78Y/N0473F370 DCT KP84A DCT KP12G DCT 4930N09000W 56N080W 61N070W DCT FEDDY DCT BERUS/M083F390 DCT CLAVY DCT 65N050W 65N040W 64N030W 62N020W DCT BALIX/N0469F390 DCT NINEX DCT GIVEM DCT RODSI DCT TOPPA DCT DIXAT DCT DOJOH DCT DODEN/N0435F330 DCT TABUM DCT BOMBI T104 HAREM/N0392F270 T104 ROKIL ROKIL1B |
| Aircraft | A388/J-SADE2E3GHIJ3J4J5LM1OP2RWXYZ/LB1D1 |
Departure
| Time | 2026-05-05 07:30 |
|---|---|
| Airport | Los Angeles International Airport (KLAX) |
Arrival
| Time | N/A |
|---|---|
| Airport | Munich Airport (EDDM) |
| Time | Latitude | Longitude | Altitude | Speed | Heading |
|---|---|---|---|---|---|
| 2026-05-05 07:00 | 33.94020 | -118.41080 | 98 ft | 0 kts | 83° |
| 2026-05-05 07:01 | 33.94020 | -118.41078 | 98 ft | 0 kts | 83° |
| 2026-05-05 07:16 | 33.94020 | -118.41080 | 98 ft | 2 kts | 83° |
| 2026-05-05 07:17 | 33.94017 | -118.41110 | 97 ft | 4 kts | 83° |
| 2026-05-05 07:17 | 33.94015 | -118.41136 | 96 ft | 4 kts | 80° |
| 2026-05-05 07:17 | 33.94006 | -118.41164 | 98 ft | 4 kts | 42° |
| 2026-05-05 07:17 | 33.93983 | -118.41177 | 96 ft | 4 kts | 0° |
| 2026-05-05 07:18 | 33.93958 | -118.41175 | 97 ft | 4 kts | 353° |
| 2026-05-05 07:18 | 33.93934 | -118.41171 | 98 ft | 1 kts | 353° |
| 2026-05-05 07:18 | 33.93933 | -118.41171 | 98 ft | 0 kts | 353° |
| 2026-05-05 07:21 | 33.93938 | -118.41172 | 98 ft | 2 kts | 353° |
| 2026-05-05 07:21 | 33.93967 | -118.41176 | 97 ft | 6 kts | 353° |
| 2026-05-05 07:22 | 33.94015 | -118.41183 | 98 ft | 8 kts | 353° |
| 2026-05-05 07:22 | 33.94071 | -118.41191 | 99 ft | 9 kts | 353° |
| 2026-05-05 07:22 | 33.94137 | -118.41201 | 100 ft | 10 kts | 353° |
| 2026-05-05 07:22 | 33.94212 | -118.41212 | 99 ft | 11 kts | 353° |
| 2026-05-05 07:23 | 33.94293 | -118.41224 | 99 ft | 13 kts | 353° |
| 2026-05-05 07:23 | 33.94383 | -118.41238 | 99 ft | 14 kts | 353° |
| 2026-05-05 07:23 | 33.94481 | -118.41253 | 99 ft | 14 kts | 353° |
| 2026-05-05 07:23 | 33.94584 | -118.41268 | 99 ft | 15 kts | 354° |
| 2026-05-05 07:24 | 33.94690 | -118.41283 | 100 ft | 16 kts | 352° |
| 2026-05-05 07:24 | 33.94758 | -118.41293 | 100 ft | 7 kts | 357° |
| 2026-05-05 07:24 | 33.94790 | -118.41277 | 100 ft | 3 kts | 55° |
| 2026-05-05 07:24 | 33.94794 | -118.41261 | 101 ft | 3 kts | 83° |
| 2026-05-05 07:25 | 33.94798 | -118.41224 | 102 ft | 6 kts | 82° |
| 2026-05-05 07:25 | 33.94806 | -118.41158 | 101 ft | 10 kts | 82° |
| 2026-05-05 07:25 | 33.94816 | -118.41062 | 101 ft | 13 kts | 83° |
| 2026-05-05 07:25 | 33.94828 | -118.40936 | 102 ft | 17 kts | 83° |
| 2026-05-05 07:26 | 33.94843 | -118.40786 | 99 ft | 20 kts | 83° |
| 2026-05-05 07:26 | 33.94861 | -118.40613 | 102 ft | 22 kts | 83° |
| 2026-05-05 07:26 | 33.94881 | -118.40422 | 100 ft | 22 kts | 83° |
| 2026-05-05 07:26 | 33.94897 | -118.40263 | 100 ft | 19 kts | 83° |
| 2026-05-05 07:27 | 33.94914 | -118.40106 | 100 ft | 10 kts | 83° |
| 2026-05-05 07:27 | 33.94919 | -118.40054 | 99 ft | 7 kts | 83° |
| 2026-05-05 07:27 | 33.94926 | -118.39986 | 98 ft | 10 kts | 83° |
| 2026-05-05 07:27 | 33.94955 | -118.39918 | 100 ft | 9 kts | 26° |
| 2026-05-05 07:28 | 33.95010 | -118.39910 | 100 ft | 6 kts | 353° |
| 2026-05-05 07:28 | 33.95040 | -118.39925 | 99 ft | 3 kts | 302° |
| 2026-05-05 07:28 | 33.95044 | -118.39939 | 101 ft | 0 kts | 266° |
| 2026-05-05 07:28 | 33.95042 | -118.39956 | 100 ft | 7 kts | 262° |
| 2026-05-05 07:29 | 33.95019 | -118.40167 | 105 ft | 60 kts | 262° |
| 2026-05-05 07:29 | 33.94937 | -118.40950 | 102 ft | 124 kts | 264° |
| 2026-05-05 07:29 | 33.94815 | -118.42137 | 145 ft | 159 kts | 261° |
| 2026-05-05 07:29 | 33.94679 | -118.43476 | 627 ft | 164 kts | 261° |
| 2026-05-05 07:30 | 33.94530 | -118.44837 | 1312 ft | 163 kts | 261° |
| 2026-05-05 07:30 | 33.94297 | -118.47668 | 2546 ft | 183 kts | 268° |
| 2026-05-05 07:30 | 33.94291 | -118.49261 | 2835 ft | 200 kts | 267° |
| 2026-05-05 07:31 | 33.94256 | -118.51023 | 2996 ft | 224 kts | 266° |
| 2026-05-05 07:31 | 33.94118 | -118.52970 | 3483 ft | 240 kts | 263° |
| 2026-05-05 07:31 | 33.93936 | -118.55026 | 4055 ft | 252 kts | 263° |
| 2026-05-05 07:31 | 33.93752 | -118.57132 | 4890 ft | 254 kts | 264° |
| 2026-05-05 07:32 | 33.93575 | -118.59252 | 5766 ft | 252 kts | 264° |
| 2026-05-05 07:32 | 33.93158 | -118.61325 | 6465 ft | 261 kts | 244° |
| 2026-05-05 07:32 | 33.92007 | -118.63029 | 7215 ft | 266 kts | 219° |
| 2026-05-05 07:32 | 33.90352 | -118.63990 | 8129 ft | 267 kts | 195° |
| 2026-05-05 07:33 | 33.88467 | -118.64094 | 8845 ft | 277 kts | 178° |
| 2026-05-05 07:33 | 33.86543 | -118.63921 | 9663 ft | 277 kts | 179° |
| 2026-05-05 07:33 | 33.84621 | -118.63634 | 10339 ft | 284 kts | 169° |
| 2026-05-05 07:33 | 33.82707 | -118.62725 | 10543 ft | 309 kts | 152° |
| 2026-05-05 07:34 | 33.80878 | -118.61215 | 10722 ft | 329 kts | 148° |
| 2026-05-05 07:34 | 33.78957 | -118.59611 | 11063 ft | 339 kts | 148° |
| 2026-05-05 07:34 | 33.76997 | -118.58000 | 11652 ft | 343 kts | 149° |
| 2026-05-05 07:34 | 33.75016 | -118.56385 | 12230 ft | 347 kts | 149° |
| 2026-05-05 07:35 | 33.73007 | -118.54753 | 12885 ft | 350 kts | 149° |
| 2026-05-05 07:35 | 33.71054 | -118.53028 | 13506 ft | 358 kts | 140° |
| 2026-05-05 07:35 | 33.69439 | -118.50655 | 14112 ft | 369 kts | 123° |
| 2026-05-05 07:35 | 33.68423 | -118.47842 | 14624 ft | 376 kts | 111° |
| 2026-05-05 07:36 | 33.67568 | -118.44816 | 15177 ft | 379 kts | 112° |
| 2026-05-05 07:36 | 33.66700 | -118.41850 | 15732 ft | 383 kts | 113° |
| 2026-05-05 07:36 | 33.65803 | -118.38829 | 16282 ft | 386 kts | 113° |
| 2026-05-05 07:36 | 33.64964 | -118.35708 | 16841 ft | 392 kts | 107° |
| 2026-05-05 07:37 | 33.64504 | -118.32449 | 17404 ft | 400 kts | 98° |
| 2026-05-05 07:37 | 33.64437 | -118.29085 | 17987 ft | 408 kts | 92° |
| 2026-05-05 07:37 | 33.64465 | -118.25664 | 18551 ft | 412 kts | 93° |
| 2026-05-05 07:37 | 33.64500 | -118.22246 | 19007 ft | 420 kts | 88° |
| 2026-05-05 07:38 | 33.65126 | -118.18791 | 19550 ft | 429 kts | 71° |
| 2026-05-05 07:38 | 33.66525 | -118.15598 | 20051 ft | 438 kts | 53° |
| 2026-05-05 07:38 | 33.68597 | -118.12923 | 20557 ft | 441 kts | 37° |
| 2026-05-05 07:38 | 33.71145 | -118.10863 | 21045 ft | 443 kts | 27° |
| 2026-05-05 07:39 | 33.73813 | -118.08977 | 21528 ft | 447 kts | 27° |
| 2026-05-05 07:39 | 33.76461 | -118.06974 | 21966 ft | 453 kts | 30° |
| 2026-05-05 07:39 | 33.79078 | -118.04815 | 22417 ft | 458 kts | 32° |
| 2026-05-05 07:39 | 33.81679 | -118.02552 | 22873 ft | 464 kts | 33° |
| 2026-05-05 07:40 | 33.84283 | -118.00226 | 23341 ft | 469 kts | 33° |
| 2026-05-05 07:40 | 33.86012 | -117.98669 | 23633 ft | 472 kts | 33° |
| 2026-05-05 07:40 | 33.88654 | -117.96283 | 24060 ft | 474 kts | 34° |
| 2026-05-05 07:40 | 33.91306 | -117.93888 | 24411 ft | 480 kts | 34° |
| 2026-05-05 07:41 | 33.93983 | -117.91451 | 24764 ft | 485 kts | 34° |
| 2026-05-05 07:41 | 33.96681 | -117.88980 | 25110 ft | 490 kts | 34° |
| 2026-05-05 07:41 | 33.99407 | -117.86480 | 25430 ft | 493 kts | 34° |
| 2026-05-05 07:41 | 34.02147 | -117.83968 | 25689 ft | 497 kts | 34° |
| 2026-05-05 07:42 | 34.04910 | -117.81435 | 25962 ft | 501 kts | 34° |
| 2026-05-05 07:42 | 34.07684 | -117.78849 | 26229 ft | 506 kts | 38° |
| 2026-05-05 07:42 | 34.10213 | -117.75874 | 26514 ft | 511 kts | 49° |
| 2026-05-05 07:42 | 34.12461 | -117.72535 | 26799 ft | 515 kts | 51° |
| 2026-05-05 07:43 | 34.14722 | -117.69158 | 27087 ft | 519 kts | 51° |
| 2026-05-05 07:43 | 34.17010 | -117.65770 | 27407 ft | 523 kts | 51° |
| 2026-05-05 07:43 | 34.19312 | -117.62361 | 27735 ft | 526 kts | 51° |
| 2026-05-05 07:43 | 34.21629 | -117.58922 | 28095 ft | 529 kts | 51° |
| 2026-05-05 07:44 | 34.23928 | -117.55505 | 28369 ft | 533 kts | 51° |
| 2026-05-05 07:44 | 34.26307 | -117.51973 | 28654 ft | 537 kts | 51° |
| 2026-05-05 07:44 | 34.28667 | -117.48458 | 28933 ft | 541 kts | 51° |
| 2026-05-05 07:44 | 34.31042 | -117.44910 | 29186 ft | 545 kts | 52° |
| 2026-05-05 07:45 | 34.33408 | -117.41371 | 29472 ft | 549 kts | 52° |
| 2026-05-05 07:45 | 34.35818 | -117.37763 | 29803 ft | 553 kts | 52° |
| 2026-05-05 07:45 | 34.38241 | -117.34134 | 30095 ft | 557 kts | 52° |
| 2026-05-05 07:45 | 34.40680 | -117.30478 | 30377 ft | 559 kts | 52° |
| 2026-05-05 07:46 | 34.43131 | -117.26802 | 30668 ft | 562 kts | 52° |
| 2026-05-05 07:46 | 34.45588 | -117.23112 | 30975 ft | 564 kts | 52° |
| 2026-05-05 07:46 | 34.48056 | -117.19403 | 31281 ft | 567 kts | 52° |
| 2026-05-05 07:46 | 34.50534 | -117.15674 | 31510 ft | 570 kts | 52° |
| 2026-05-05 07:47 | 34.53037 | -117.11901 | 31642 ft | 576 kts | 53° |
| 2026-05-05 07:47 | 34.55550 | -117.08120 | 31998 ft | 577 kts | 52° |
| 2026-05-05 07:47 | 34.58110 | -117.04375 | 32405 ft | 577 kts | 51° |
| 2026-05-05 07:47 | 34.60705 | -117.00623 | 32642 ft | 581 kts | 51° |
| 2026-05-05 07:48 | 34.63312 | -116.96850 | 32904 ft | 584 kts | 51° |
| 2026-05-05 07:48 | 34.65920 | -116.93061 | 33205 ft | 586 kts | 51° |
| 2026-05-05 07:48 | 34.68535 | -116.89249 | 33457 ft | 590 kts | 52° |
| 2026-05-05 07:48 | 34.71167 | -116.85403 | 33661 ft | 593 kts | 52° |
| 2026-05-05 07:49 | 34.76485 | -116.77609 | 34010 ft | 602 kts | 52° |
| 2026-05-05 07:49 | 34.79166 | -116.73675 | 34285 ft | 604 kts | 52° |
| 2026-05-05 07:49 | 34.81844 | -116.69741 | 34628 ft | 603 kts | 52° |
| 2026-05-05 07:50 | 34.84524 | -116.65803 | 34867 ft | 606 kts | 52° |
| 2026-05-05 07:50 | 34.87243 | -116.61853 | 34914 ft | 613 kts | 50° |
| 2026-05-05 07:50 | 34.93092 | -116.54091 | 34880 ft | 630 kts | 48° |
| 2026-05-05 07:51 | 34.99117 | -116.46150 | 34860 ft | 646 kts | 48° |
| 2026-05-05 07:51 | 35.05133 | -116.38109 | 34857 ft | 626 kts | 49° |
| 2026-05-05 07:52 | 35.08019 | -116.34232 | 34851 ft | 609 kts | 49° |
| 2026-05-05 07:52 | 35.10811 | -116.30474 | 34859 ft | 603 kts | 49° |
| 2026-05-05 07:52 | 35.16489 | -116.22814 | 34843 ft | 614 kts | 49° |
| 2026-05-05 07:53 | 35.22243 | -116.15037 | 34848 ft | 616 kts | 49° |
| 2026-05-05 07:53 | 35.27967 | -116.07291 | 34855 ft | 611 kts | 49° |
| 2026-05-05 07:54 | 35.33663 | -115.99562 | 34860 ft | 612 kts | 49° |
| 2026-05-05 07:54 | 35.39352 | -115.91822 | 34812 ft | 611 kts | 49° |
| 2026-05-05 07:55 | 35.45039 | -115.84070 | 34820 ft | 611 kts | 49° |
| 2026-05-05 07:55 | 35.50723 | -115.76303 | 34840 ft | 612 kts | 49° |
| 2026-05-05 07:56 | 35.56409 | -115.68517 | 34845 ft | 613 kts | 49° |
| 2026-05-05 07:56 | 35.62105 | -115.60699 | 34824 ft | 616 kts | 49° |
| 2026-05-05 07:57 | 35.67861 | -115.52780 | 34875 ft | 624 kts | 49° |
| 2026-05-05 07:57 | 35.73640 | -115.44810 | 34878 ft | 624 kts | 49° |
| 2026-05-05 07:58 | 35.79423 | -115.36822 | 34872 ft | 624 kts | 50° |
| 2026-05-05 07:58 | 35.85163 | -115.28859 | 34879 ft | 629 kts | 49° |
| 2026-05-05 07:59 | 35.90960 | -115.20801 | 34890 ft | 627 kts | 49° |
| 2026-05-05 07:59 | 35.96728 | -115.12768 | 34872 ft | 624 kts | 49° |
| 2026-05-05 08:00 | 36.02469 | -115.04755 | 34856 ft | 622 kts | 49° |
| 2026-05-05 08:00 | 36.08197 | -114.96741 | 34768 ft | 621 kts | 49° |
| 2026-05-05 08:01 | 36.13936 | -114.88690 | 34769 ft | 627 kts | 49° |
| 2026-05-05 08:01 | 36.19553 | -114.80448 | 34762 ft | 625 kts | 57° |
| 2026-05-05 08:02 | 36.24659 | -114.71740 | 34734 ft | 624 kts | 56° |
| 2026-05-05 08:02 | 36.29778 | -114.63086 | 34728 ft | 622 kts | 56° |
| 2026-05-05 08:03 | 36.34852 | -114.54469 | 34714 ft | 622 kts | 56° |
| 2026-05-05 08:03 | 36.39938 | -114.45803 | 34718 ft | 621 kts | 56° |
| 2026-05-05 08:04 | 36.45009 | -114.37141 | 34693 ft | 620 kts | 56° |
| 2026-05-05 08:04 | 36.50065 | -114.28471 | 34675 ft | 620 kts | 56° |
| 2026-05-05 08:05 | 36.55132 | -114.19766 | 34693 ft | 621 kts | 56° |
| 2026-05-05 08:05 | 36.60198 | -114.11035 | 34744 ft | 623 kts | 55° |
| 2026-05-05 08:06 | 36.65266 | -114.02283 | 34740 ft | 623 kts | 55° |
| 2026-05-05 08:06 | 36.70326 | -113.93523 | 34735 ft | 623 kts | 55° |
| 2026-05-05 08:07 | 36.75386 | -113.84753 | 34768 ft | 624 kts | 55° |
| 2026-05-05 08:07 | 36.80445 | -113.75946 | 34778 ft | 625 kts | 56° |
| 2026-05-05 08:08 | 36.85500 | -113.67120 | 34802 ft | 625 kts | 55° |
| 2026-05-05 08:08 | 36.90551 | -113.58285 | 34820 ft | 625 kts | 55° |
| 2026-05-05 08:09 | 36.95563 | -113.49492 | 34863 ft | 625 kts | 55° |
| 2026-05-05 08:09 | 37.00601 | -113.40630 | 34795 ft | 625 kts | 54° |
| 2026-05-05 08:10 | 37.05631 | -113.31763 | 34837 ft | 625 kts | 55° |
| 2026-05-05 08:10 | 37.10656 | -113.22879 | 34858 ft | 625 kts | 55° |
| 2026-05-05 08:11 | 37.15673 | -113.13984 | 34865 ft | 624 kts | 55° |
| 2026-05-05 08:11 | 37.20671 | -113.05093 | 34845 ft | 623 kts | 54° |
| 2026-05-05 08:12 | 37.25668 | -112.96186 | 34830 ft | 624 kts | 55° |
| 2026-05-05 08:12 | 37.30670 | -112.87262 | 34828 ft | 625 kts | 54° |
| 2026-05-05 08:13 | 37.35662 | -112.78320 | 34831 ft | 625 kts | 54° |
| 2026-05-05 08:13 | 37.40609 | -112.69430 | 34820 ft | 625 kts | 54° |
| 2026-05-05 08:14 | 37.45582 | -112.60472 | 34828 ft | 624 kts | 54° |
| 2026-05-05 08:14 | 37.50546 | -112.51507 | 34814 ft | 624 kts | 54° |
| 2026-05-05 08:15 | 37.55499 | -112.42536 | 34872 ft | 623 kts | 54° |
| 2026-05-05 08:15 | 37.60446 | -112.33556 | 34934 ft | 623 kts | 54° |
| 2026-05-05 08:16 | 37.65421 | -112.24607 | 35013 ft | 623 kts | 51° |
| 2026-05-05 08:16 | 37.70778 | -112.16038 | 35008 ft | 622 kts | 49° |
| 2026-05-05 08:17 | 37.76152 | -112.07486 | 35004 ft | 622 kts | 49° |
| 2026-05-05 08:17 | 37.81482 | -111.98857 | 34949 ft | 622 kts | 50° |
| 2026-05-05 08:18 | 37.86781 | -111.90219 | 34892 ft | 622 kts | 50° |
| 2026-05-05 08:18 | 37.92087 | -111.81549 | 34813 ft | 622 kts | 50° |
| 2026-05-05 08:19 | 37.97381 | -111.72874 | 34837 ft | 621 kts | 50° |
| 2026-05-05 08:19 | 38.02661 | -111.64201 | 34815 ft | 621 kts | 50° |
| 2026-05-05 08:20 | 38.07929 | -111.55524 | 34809 ft | 620 kts | 50° |
| 2026-05-05 08:20 | 38.13181 | -111.46851 | 34790 ft | 619 kts | 50° |
| 2026-05-05 08:21 | 38.18416 | -111.38184 | 34758 ft | 617 kts | 50° |
| 2026-05-05 08:21 | 38.23633 | -111.29521 | 34754 ft | 617 kts | 50° |
| 2026-05-05 08:22 | 38.28808 | -111.20902 | 34741 ft | 616 kts | 50° |
| 2026-05-05 08:22 | 38.34001 | -111.12242 | 34733 ft | 615 kts | 49° |
| 2026-05-05 08:23 | 38.39180 | -111.03575 | 34760 ft | 614 kts | 50° |
| 2026-05-05 08:23 | 38.44348 | -110.94904 | 34784 ft | 614 kts | 50° |
| 2026-05-05 08:24 | 38.49504 | -110.86228 | 34814 ft | 613 kts | 50° |
| 2026-05-05 08:24 | 38.54652 | -110.77543 | 34828 ft | 613 kts | 49° |
| 2026-05-05 08:25 | 38.59796 | -110.68842 | 34792 ft | 613 kts | 49° |
| 2026-05-05 08:25 | 38.64921 | -110.60150 | 34752 ft | 611 kts | 49° |
| 2026-05-05 08:26 | 38.70028 | -110.51464 | 34734 ft | 609 kts | 50° |
| 2026-05-05 08:26 | 38.75108 | -110.42803 | 34701 ft | 608 kts | 49° |
| 2026-05-05 08:27 | 38.80178 | -110.34138 | 34689 ft | 607 kts | 49° |
| 2026-05-05 08:27 | 38.85202 | -110.25523 | 34679 ft | 606 kts | 49° |
| 2026-05-05 08:28 | 38.90246 | -110.16853 | 34689 ft | 606 kts | 49° |
| 2026-05-05 08:28 | 38.95285 | -110.08167 | 34710 ft | 607 kts | 49° |
| 2026-05-05 08:29 | 39.00300 | -109.99438 | 34733 ft | 609 kts | 52° |
| 2026-05-05 08:30 | 39.07303 | -109.85777 | 34746 ft | 611 kts | 52° |
| 2026-05-05 08:30 | 39.11205 | -109.78191 | 34737 ft | 611 kts | 52° |
| 2026-05-05 08:31 | 39.15886 | -109.69051 | 34747 ft | 611 kts | 52° |
| 2026-05-05 08:31 | 39.20566 | -109.59898 | 34743 ft | 612 kts | 53° |
| 2026-05-05 08:32 | 39.25244 | -109.50706 | 34778 ft | 611 kts | 53° |
| 2026-05-05 08:32 | 39.29895 | -109.41540 | 34783 ft | 610 kts | 52° |
| 2026-05-05 08:33 | 39.34523 | -109.32377 | 34756 ft | 608 kts | 53° |
| 2026-05-05 08:33 | 39.39137 | -109.23232 | 34756 ft | 606 kts | 52° |
| 2026-05-05 08:34 | 39.43731 | -109.14097 | 34732 ft | 605 kts | 53° |
| 2026-05-05 08:34 | 39.48312 | -109.04958 | 34731 ft | 604 kts | 52° |
| 2026-05-05 08:35 | 39.52852 | -108.95892 | 34702 ft | 604 kts | 52° |
| 2026-05-05 08:35 | 39.57414 | -108.86744 | 34770 ft | 604 kts | 53° |
| 2026-05-05 08:36 | 39.61952 | -108.77613 | 34795 ft | 601 kts | 53° |
| 2026-05-05 08:36 | 39.66467 | -108.68501 | 34766 ft | 599 kts | 53° |
| 2026-05-05 08:37 | 39.70966 | -108.59410 | 34759 ft | 598 kts | 53° |
| 2026-05-05 08:37 | 39.75449 | -108.50321 | 34763 ft | 596 kts | 53° |
| 2026-05-05 08:38 | 39.79910 | -108.41240 | 34757 ft | 596 kts | 52° |
| 2026-05-05 08:38 | 39.84366 | -108.32140 | 34746 ft | 596 kts | 53° |
| 2026-05-05 08:39 | 39.88811 | -108.23039 | 34784 ft | 596 kts | 53° |
| 2026-05-05 08:39 | 39.91032 | -108.18484 | 34910 ft | 594 kts | 53° |
| 2026-05-05 08:39 | 39.93242 | -108.13943 | 34881 ft | 591 kts | 53° |
| 2026-05-05 08:40 | 39.97615 | -108.04938 | 34940 ft | 585 kts | 53° |
| 2026-05-05 08:40 | 40.01969 | -107.96047 | 34988 ft | 586 kts | 52° |
| 2026-05-05 08:41 | 40.06542 | -107.87235 | 34984 ft | 586 kts | 51° |
| 2026-05-05 08:41 | 40.08828 | -107.82836 | 34832 ft | 585 kts | 51° |
| 2026-05-05 08:41 | 40.11101 | -107.78429 | 34831 ft | 586 kts | 51° |
| 2026-05-05 08:42 | 40.15627 | -107.69603 | 34850 ft | 583 kts | 52° |
| 2026-05-05 08:42 | 40.20125 | -107.60793 | 34849 ft | 582 kts | 52° |
| 2026-05-05 08:43 | 40.24591 | -107.52013 | 34887 ft | 576 kts | 52° |
| 2026-05-05 08:43 | 40.29000 | -107.43325 | 34894 ft | 572 kts | 52° |
| 2026-05-05 08:44 | 40.33409 | -107.34622 | 34878 ft | 573 kts | 52° |
| 2026-05-05 08:44 | 40.37799 | -107.25924 | 34876 ft | 573 kts | 52° |
| 2026-05-05 08:45 | 40.42190 | -107.17201 | 34863 ft | 571 kts | 52° |
| 2026-05-05 08:45 | 40.46563 | -107.08493 | 34856 ft | 571 kts | 52° |
| 2026-05-05 08:46 | 40.50929 | -106.99770 | 34895 ft | 571 kts | 52° |
| 2026-05-05 08:46 | 40.55236 | -106.91142 | 34863 ft | 564 kts | 52° |
| 2026-05-05 08:47 | 40.59515 | -106.82544 | 34933 ft | 561 kts | 52° |
| 2026-05-05 08:47 | 40.63794 | -106.73927 | 34919 ft | 563 kts | 52° |
| 2026-05-05 08:48 | 40.68073 | -106.65290 | 34902 ft | 562 kts | 52° |
| 2026-05-05 08:48 | 40.72330 | -106.56657 | 34877 ft | 561 kts | 52° |
| 2026-05-05 08:49 | 40.76582 | -106.48024 | 34864 ft | 561 kts | 52° |
| 2026-05-05 08:49 | 40.80830 | -106.39374 | 34899 ft | 562 kts | 52° |
| 2026-05-05 08:50 | 40.85071 | -106.30710 | 34876 ft | 562 kts | 52° |
| 2026-05-05 08:50 | 40.89301 | -106.22047 | 34884 ft | 561 kts | 52° |
| 2026-05-05 08:51 | 40.93521 | -106.13378 | 34885 ft | 560 kts | 53° |
| 2026-05-05 08:51 | 40.97731 | -106.04706 | 34885 ft | 560 kts | 53° |
| 2026-05-05 08:52 | 41.01960 | -105.96068 | 34895 ft | 558 kts | 51° |
| 2026-05-05 08:52 | 41.06355 | -105.87604 | 34911 ft | 557 kts | 50° |
| 2026-05-05 08:53 | 41.10709 | -105.79203 | 34948 ft | 557 kts | 51° |
| 2026-05-05 08:53 | 41.15063 | -105.70720 | 34954 ft | 556 kts | 51° |
| 2026-05-05 08:54 | 41.19398 | -105.62233 | 34966 ft | 555 kts | 51° |
| 2026-05-05 08:54 | 41.23716 | -105.53759 | 34949 ft | 554 kts | 51° |
| 2026-05-05 08:55 | 41.28027 | -105.45275 | 34938 ft | 554 kts | 51° |
| 2026-05-05 08:55 | 41.32332 | -105.36779 | 34920 ft | 554 kts | 51° |
| 2026-05-05 08:56 | 41.36633 | -105.28267 | 34940 ft | 554 kts | 51° |
| 2026-05-05 08:56 | 41.40928 | -105.19744 | 34931 ft | 554 kts | 51° |
| 2026-05-05 08:57 | 41.45208 | -105.11225 | 34926 ft | 552 kts | 51° |
| 2026-05-05 08:57 | 41.49465 | -105.02728 | 34903 ft | 551 kts | 51° |
| 2026-05-05 08:58 | 41.53709 | -104.94235 | 34891 ft | 549 kts | 51° |
| 2026-05-05 08:58 | 41.57942 | -104.85742 | 34878 ft | 549 kts | 51° |
| 2026-05-05 08:59 | 41.62164 | -104.77246 | 34883 ft | 548 kts | 51° |
| 2026-05-05 08:59 | 41.66369 | -104.68759 | 34874 ft | 548 kts | 51° |
| 2026-05-05 09:00 | 41.70573 | -104.60252 | 34907 ft | 547 kts | 52° |
| 2026-05-05 09:00 | 41.74732 | -104.51811 | 34899 ft | 546 kts | 52° |
| 2026-05-05 09:01 | 41.78904 | -104.43322 | 34895 ft | 545 kts | 52° |
| 2026-05-05 09:01 | 41.83063 | -104.34833 | 34894 ft | 544 kts | 52° |
| 2026-05-05 09:02 | 41.87210 | -104.26349 | 34901 ft | 544 kts | 52° |
| 2026-05-05 09:02 | 41.91350 | -104.17853 | 34903 ft | 544 kts | 52° |
| 2026-05-05 09:03 | 41.95488 | -104.09336 | 34912 ft | 544 kts | 52° |
| 2026-05-05 09:03 | 41.99621 | -104.00814 | 34887 ft | 545 kts | 52° |
| 2026-05-05 09:04 | 42.03867 | -103.92377 | 34908 ft | 544 kts | 50° |
| 2026-05-05 09:04 | 42.08216 | -103.84041 | 34938 ft | 545 kts | 50° |
| 2026-05-05 09:05 | 42.12550 | -103.75642 | 34932 ft | 546 kts | 51° |
| 2026-05-05 09:05 | 42.16845 | -103.67256 | 34929 ft | 546 kts | 51° |
| 2026-05-05 09:06 | 42.21149 | -103.58823 | 34956 ft | 546 kts | 51° |
| 2026-05-05 09:06 | 42.25457 | -103.50362 | 34939 ft | 546 kts | 51° |
| 2026-05-05 09:07 | 42.29759 | -103.41887 | 34928 ft | 547 kts | 51° |
| 2026-05-05 09:07 | 42.34059 | -103.33393 | 34943 ft | 547 kts | 51° |
| 2026-05-05 09:08 | 42.38349 | -103.24896 | 34941 ft | 547 kts | 51° |
| 2026-05-05 09:08 | 42.42634 | -103.16383 | 34944 ft | 547 kts | 51° |
| 2026-05-05 09:09 | 42.46915 | -103.07853 | 34952 ft | 548 kts | 51° |